Terminal Aerodrome Forecast
Issued by NWS

Home | Current Version | Previous Version | Text Only | Print | Product List | Glossary On
Versions: 1 2 3 4 5 6 7 8 9 10 11 12
000
FTPQ31 PGUM 090533
TAFGUM
TAF

TAF
PKMJ 090533Z 0906/1006 04012KT P6SM VCSH FEW016 SCT050 BKN140
      TEMPO 0908/0912 -SHRA SCT014 BKN030
     FM091200 08011KT P6SM VCSH SCT016 SCT040 BKN120
      TEMPO 0912/0916 5SM SHRA BKN016 OVC030=

USA.gov is the U.S. government's official web portal to all federal, state and local government web resources and services.